TimeEDT,TemperatureF,Dew PointF,Humidity,Sea Level PressureIn,VisibilityMPH,Wind Direction,Wind SpeedMPH,Gust SpeedMPH,PrecipitationIn,Events,Conditions,WindDirDegrees,DateUTC
12:53 AM,55.9,51.1,84,30.06,10.0,NW,3.5,-,N/A,,Partly Cloudy,310,2012-10-03 04:53:00
1:53 AM,57.0,51.1,81,30.07,10.0,WNW,5.8,-,N/A,,Clear,300,2012-10-03 05:53:00
2:53 AM,51.1,48.9,92,30.08,10.0,Calm,Calm,-,N/A,,Clear,0,2012-10-03 06:53:00
3:53 AM,52.0,50.0,93,30.09,10.0,West,3.5,-,N/A,,Clear,280,2012-10-03 07:53:00
4:53 AM,52.0,50.0,93,30.11,10.0,Calm,Calm,-,N/A,,Clear,0,2012-10-03 08:53:00
5:53 AM,48.9,46.9,93,30.12,10.0,Calm,Calm,-,N/A,,Clear,0,2012-10-03 09:53:00
6:53 AM,48.0,46.0,93,30.14,8.0,Calm,Calm,-,N/A,,Clear,0,2012-10-03 10:53:00
7:53 AM,53.1,50.0,89,30.15,10.0,NW,3.5,-,N/A,,Clear,310,2012-10-03 11:53:00
8:53 AM,59.0,52.0,78,30.17,10.0,Calm,Calm,-,N/A,,Clear,0,2012-10-03 12:53:00
9:53 AM,63.0,52.0,67,30.17,10.0,Calm,Calm,-,N/A,,Clear,0,2012-10-03 13:53:00
10:53 AM,66.9,51.1,57,30.17,10.0,NE,8.1,-,N/A,,Clear,40,2012-10-03 14:53:00
11:53 AM,70.0,48.9,47,30.16,10.0,North,8.1,-,N/A,,Clear,10,2012-10-03 15:53:00
12:53 PM,70.0,50.0,49,30.14,10.0,SE,3.5,-,N/A,,Clear,140,2012-10-03 16:53:00
1:53 PM,72.0,50.0,46,30.13,10.0,NE,3.5,-,N/A,,Clear,40,2012-10-03 17:53:00
2:53 PM,71.1,51.1,49,30.14,10.0,South,3.5,-,N/A,,Clear,170,2012-10-03 18:53:00
3:53 PM,70.0,50.0,49,30.14,10.0,Calm,Calm,-,N/A,,Scattered Clouds,0,2012-10-03 19:53:00
4:53 PM,69.1,54.0,58,30.14,10.0,Calm,Calm,-,N/A,,Scattered Clouds,0,2012-10-03 20:53:00
5:53 PM,66.0,54.0,65,30.16,10.0,Calm,Calm,-,N/A,,Overcast,0,2012-10-03 21:53:00
6:53 PM,63.0,57.0,81,30.17,10.0,Calm,Calm,-,N/A,,Mostly Cloudy,0,2012-10-03 22:53:00
7:53 PM,62.1,55.9,80,30.19,10.0,Calm,Calm,-,N/A,,Overcast,0,2012-10-03 23:53:00
8:53 PM,60.1,55.9,86,30.19,10.0,Calm,Calm,-,N/A,,Overcast,0,2012-10-04 00:53:00
9:53 PM,61.0,51.1,70,30.21,10.0,Calm,Calm,-,N/A,,Overcast,0,2012-10-04 01:53:00
10:53 PM,57.9,53.1,84,30.21,10.0,Calm,Calm,-,N/A,,Overcast,0,2012-10-04 02:53:00
11:53 PM,57.9,50.0,75,30.22,10.0,Calm,Calm,-,N/A,,Overcast,0,2012-10-04 03:53:00